ADDS METAR Data INFO
IDs: Format: Raw Decoded Include TAF

Data at: 0139 UTC 26 Feb 2018

KSVH 260115Z AUTO 25003KT 10SM BKN120 17/14 A3006 RMK AO2 T01660137
KSVH 260055Z AUTO 29004KT 10SM SCT120 17/13 A3006 RMK AO2 T01700134
KSVH 260035Z AUTO 24005KT 10SM SCT100 SCT120 17/13 A3004 RMK AO2 T01710129
KSVH 260015Z AUTO 20006KT 10SM SCT095 OVC120 17/12 A3003 RMK AO2 T01740124
KSVH 252355Z AUTO 21010G16KT 10SM OVC110 18/12 A3003 RMK AO2 T01750124 10190 20174
KSVH 252335Z AUTO 20006G16KT 10SM SCT085 OVC110 18/12 A2999 RMK AO2 T01750120
KSVH 252315Z AUTO 20010KT 10SM OVC100 18/13 A3002 RMK AO2 T01750130
KSVH 252255Z AUTO 17006KT 10SM OVC090 18/15 A3001 RMK AO2 T01750146
KSVH 252235Z AUTO 17008KT 10SM OVC100 18/16 A3003 RMK AO2 T01750157
KSVH 252215Z AUTO 19007KT 10SM OVC090 18/16 A3004 RMK AO2 T01760160
KSVH 252155Z AUTO 19006KT 10SM OVC090 18/16 A3004 RMK AO2 T01780162
KSVH 252135Z AUTO 20006KT 10SM OVC100 18/16 A3004 RMK AO2 T01800161
KSVH 252115Z AUTO 21005KT 10SM OVC100 18/17 A3005 RMK AO2 T01820166
KSVH 252030Z AUTO 21007KT 10SM OVC100 19/17 A3006 RMK AO2 T01850170
KSVH 252015Z AUTO 22006KT 10SM OVC100 19/16 A3005 RMK AO2 T01900157
KSVH 251955Z AUTO 19005KT 10SM OVC090 19/17 A3005 RMK AO2 T01850169
KSVH 251935Z AUTO 19004KT 10SM OVC090 18/17 A3005 RMK AO2 T01820166
KSVH 251915Z AUTO 20006KT 10SM BKN090 19/17 A3006 RMK AO2 T01850168
KSVH 251855Z AUTO 20008G14KT 10SM BKN100 19/17 A3005 RMK AO2 T01900174
KSVH 251835Z AUTO 20009KT 10SM OVC100 19/17 A3005 RMK AO2 T01850168
KSVH 251815Z AUTO 25006KT 10SM OVC100 19/15 A3005 RMK AO2 T01860148
KSVH 251735Z AUTO 21006KT 10SM OVC100 18/17 A3006 RMK AO2 T01820166
KSVH 251715Z AUTO 21006KT 10SM OVC090 17/16 A3005 RMK AO2 T01710155
KSVH 251655Z AUTO 18006KT 10SM OVC080 16/14 A3005 RMK AO2 T01600144
KSVH 251635Z AUTO 19006KT 10SM -DZ SCT070 OVC080 A3008 RMK AO2
KSVH 251615Z AUTO 22003KT 10SM -RA BKN070 OVC080 A3009 RMK AO2
KSVH 251555Z AUTO 00000KT 10SM SCT048 BKN060 OVC080 A3009 RMK AO2
KSVH 251535Z AUTO 26004KT 10SM RA BKN050 OVC075 A3009 RMK AO2
KSVH 251515Z AUTO 28004KT 10SM RA SCT065 OVC075 A3010 RMK AO2
KSVH 251455Z AUTO 23003KT 5SM RA SCT055 OVC075 A3008 RMK AO2 P0001 60001
KSVH 251435Z AUTO 19003KT 5SM +RA BKN015 OVC060 A3007 RMK AO2
KSVH 251415Z AUTO 26005KT 7SM -RA OVC019 17/15 A3007 RMK AO2 T01670151
KSVH 251355Z AUTO 26007KT 10SM RA OVC019 17/16 A3007 RMK AO2 T01740157
KSVH 251335Z AUTO 28007G16KT 10SM BKN019 OVC100 18/16 A3006 RMK AO2 T01750160
KSVH 251315Z AUTO 21008G17KT 10SM BKN100 OVC120 18/16 A3002 RMK AO2 T01750160
KSVH 251255Z AUTO 21007G15KT 10SM BKN100 OVC120 17/16 A3000 RMK AO2 T01730157
KSVH 251235Z AUTO 20011G17KT 10SM BKN100 17/16 A2999 RMK AO2 T01700155
KSVH 251215Z AUTO 21009G16KT 170V230 10SM CLR 17/15 A2999 RMK AO2 T01660150
KSVH 251155Z AUTO 20008KT 160V220 10SM CLR 17/15 A2999 RMK AO2 T01670151 10190 20167
KSVH 251135Z AUTO 20008G15KT 10SM CLR 17/15 A2998 RMK AO2 T01700153
KSVH 251115Z AUTO 21008KT 10SM CLR 17/16 A2999 RMK AO2 T01710155
KSVH 251055Z AUTO 20008G14KT 160V240 10SM CLR 17/16 A2998 RMK AO2 T01730157
KSVH 251035Z AUTO 20006KT 10SM CLR 18/16 A2998 RMK AO2 T01750160
KSVH 251015Z AUTO 20009KT 160V220 10SM CLR 18/16 A2999 RMK AO2 T01780161
KSVH 250955Z AUTO 19010KT 10SM CLR 18/16 A2999 RMK AO2 T01770161
KSVH 250935Z AUTO 21005KT 10SM CLR 18/16 A2998 RMK AO2 T01750160
KSVH 250915Z AUTO 18005KT 10SM SCT090 18/16 A2998 RMK AO2 T01750159
KSVH 250855Z AUTO 18008KT 10SM SCT090 18/16 A2999 RMK AO2 T01780162
KSVH 250835Z AUTO 20008G17KT 10SM CLR 18/17 A2999 RMK AO2 T01800165
KSVH 250815Z AUTO 19009G16KT 10SM SCT050 SCT060 SCT085 18/17 A2999 RMK AO2 T01800165
KSVH 250755Z AUTO 20007KT 160V230 10SM SCT048 SCT060 BKN095 18/17 A3000 RMK AO2 T01810165
KSVH 250735Z AUTO 20010G15KT 160V230 10SM SCT048 SCT095 18/17 A3001 RMK AO2 T01820166
KSVH 250715Z AUTO 20006G15KT 170V240 10SM SCT095 19/17 A3001 RMK AO2 T01850167
KSVH 250655Z AUTO 20008KT 160V220 10SM CLR 19/16 A3001 RMK AO2 T01850163
KSVH 250635Z AUTO 20009G14KT 10SM CLR 19/16 A3002 RMK AO2 T01860156
KSVH 250615Z AUTO 20006KT 10SM CLR 19/15 A3003 RMK AO2 T01870151
KSVH 250555Z AUTO 19008KT 10SM CLR 19/15 A3003 RMK AO2 T01900150 10218 20188
KSVH 250535Z AUTO 18008KT 10SM CLR 19/15 A3003 RMK AO2 T01900152
KSVH 250515Z AUTO 19008KT 10SM CLR 19/16 A3003 RMK AO2 T01890155
KSVH 250455Z AUTO 19005KT 10SM SCT075 SCT085 19/15 A3003 RMK AO2 T01900154
KSVH 250435Z AUTO 19006KT 10SM SCT075 SCT085 19/15 A3004 RMK AO2 T01910152
KSVH 250415Z AUTO 19006KT 10SM SCT085 19/15 A3005 RMK AO2 T01900154
KSVH 250355Z AUTO 19005KT 10SM SCT065 SCT085 19/16 A3005 RMK AO2 T01900155
KSVH 250335Z AUTO 19004KT 10SM SCT065 BKN085 19/15 A3004 RMK AO2 T01920151
KSVH 250315Z AUTO 19005KT 10SM CLR 19/15 A3004 RMK AO2 T01910151
KSVH 250255Z AUTO 20003KT 10SM CLR 19/15 A3004 RMK AO2 T01920148
KSVH 250235Z AUTO 18004KT 10SM CLR 19/15 A3004 RMK AO2 T01920145
KSVH 250215Z AUTO 18005KT 10SM CLR 19/14 A3005 RMK AO2 T01940141
KSVH 250155Z AUTO 18005KT 10SM CLR 19/13 A3005 RMK AO2 T01940134
KSVH 250135Z AUTO 00000KT 10SM CLR 20/12 A3005 RMK AO2 T01960122
KSVH 250115Z AUTO 17003KT 10SM CLR 20/12 A3005 RMK AO2 T02000116
KSVH 250055Z AUTO 18003KT 10SM CLR 21/11 A3006 RMK AO2 T02080110
KSVH 250035Z AUTO 20004KT 10SM BKN080 21/11 A3006 RMK AO2 T02140106
KSVH 250015Z AUTO 21003KT 10SM BKN080 22/10 A3005 RMK AO2 T02170103
KSVH 242355Z AUTO 21005KT 10SM CLR 22/10 A3005 RMK AO2 T02180102 10243 20218
KSVH 242335Z AUTO 21004KT 10SM CLR 22/10 A3004 RMK AO2 T02210100
KSVH 242315Z AUTO 21004KT 10SM CLR 23/11 A3004 RMK AO2 T02250105
KSVH 242255Z AUTO 21005KT 10SM SCT050 23/10 A3004 RMK AO2 T02310104
KSVH 242235Z AUTO 22005KT 10SM SCT060 SCT070 24/11 A3004 RMK AO2 T02390108
KSVH 242215Z AUTO 20006KT 10SM BKN060 BKN095 BKN110 24/12 A3004 RMK AO2 T02360121
KSVH 242155Z AUTO 21004KT 10SM SCT048 BKN060 OVC100 23/13 A3004 RMK AO2 T02290131
KSVH 242135Z AUTO 19004KT 10SM SCT048 BKN060 BKN110 24/13 A3004 RMK AO2 T02350125
KSVH 242115Z AUTO 21006KT 10SM SCT041 SCT050 BKN100 24/12 A3004 RMK AO2 T02430124
KSVH 242055Z AUTO 19007KT 10SM BKN043 BKN055 BKN095 24/13 A3004 RMK AO2 T02400125
KSVH 242035Z AUTO 22008G16KT 180V270 10SM BKN043 BKN049 BKN095 24/12 A3005 RMK AO2 T02370124
KSVH 242015Z AUTO 20010G16KT 150V240 10SM BKN043 BKN049 OVC095 24/13 A3006 RMK AO2 T02360126
KSVH 241955Z AUTO 21010G16KT 10SM BKN041 BKN047 OVC095 23/13 A3008 RMK AO2 T02330125
KSVH 241935Z AUTO 21013G18KT 170V240 10SM BKN041 OVC055 24/13 A3008 RMK AO2 T02360126
KSVH 241915Z AUTO 21013G19KT 10SM BKN039 BKN045 BKN100 24/13 A3009 RMK AO2 T02370125
KSVH 241855Z AUTO 21012G23KT 190V250 10SM BKN035 BKN041 OVC100 24/13 A3009 RMK AO2 T02360127
KSVH 241835Z AUTO 19009G17KT 150V230 10SM BKN035 22/14 A3010 RMK AO2 T02240140
KSVH 241815Z AUTO 22010G16KT 10SM BKN034 23/14 A3011 RMK AO2 T02290142
KSVH 241755Z AUTO 22012G18KT 190V250 10SM OVC035 22/14 A3013 RMK AO2 T02240141 10230 20094
KSVH 241735Z AUTO 21007G15KT 160V230 10SM BKN028 OVC035 23/15 A3015 RMK AO2 T02280153
KSVH 241715Z AUTO 19009KT 10SM BKN026 BKN031 21/17 A3016 RMK AO2 T02140166
KSVH 241655Z AUTO 20008G14KT 170V240 10SM SCT022 BKN080 BKN110 21/16 A3017 RMK AO2 T02130164
KSVH 241635Z AUTO 22007KT 10SM OVC080 20/17 A3018 RMK AO2 T01960171
KSVH 241615Z AUTO 20006KT 10SM BKN080 OVC090 19/18 A3018 RMK AO2 T01920176
KSVH 241555Z AUTO 20006KT 10SM OVC080 18/17 A3018 RMK AO2 T01810165
KSVH 241535Z AUTO 21005KT 10SM OVC080 18/16 A3019 RMK AO2 T01770161
KSVH 241515Z AUTO 22007G16KT 10SM SCT014 OVC090 18/16 A3019 RMK AO2 T01760160
KSVH 241455Z AUTO 22011G15KT 170V260 10SM SCT014 BKN090 OVC100 18/16 A3019 RMK AO2 T01780162
KSVH 241435Z AUTO 21005KT 10SM SCT011 BKN100 18/17 A3019 RMK AO2 T01830166
KSVH 241415Z AUTO 20003KT 10SM SCT090 SCT110 17/15 A3020 RMK AO2 T01690153
KSVH 241355Z AUTO 21003KT 10SM SCT090 16/14 A3020 RMK AO2 T01600144